Time;durP1;ratioP1;P1;durP2;ratioP2;P2;SDS_P1;SDS_P2;PMS_P1;PMS_P2;Temp;Humidity;BMP_temperature;BMP_pressure;BME280_temperature;BME280_humidity;BME280_pressure;Samples;Min_cycle;Max_cycle;Signal;HPM_P1;HPM_P2
2022/11/05 00:10:02;;;;;;;;;;;;;;;;;;5078605;28;19958;-40
2022/11/05 00:18:05;;;;;;;;;;;;;;;;;;5086454;28;19915;-40
2022/11/05 00:20:31;;;;;;;;;;;;;;;;;;5091637;28;19919;-41
2022/11/05 00:25:41;;;;;;;;;;;;;;;;;;5092774;28;20124;-40
2022/11/05 00:28:07;;;;;;;;;;;;;;;;;;5073182;28;19999;-40
2022/11/05 00:30:33;;;;;;;;;;;;;;;;;;5083930;28;19914;-40
2022/11/05 00:32:59;;;;;;;;;;;;;;;;;;5092224;28;19911;-41
2022/11/05 00:35:24;;;;;;;;;;;;;;;;;;5092181;28;19957;-40
2022/11/05 00:37:50;;;;;;;;;;;;;;;;;;5087718;28;19943;-40
2022/11/05 00:40:16;;;;;;;;;;;;;;;;;;5071543;28;19912;-41
2022/11/05 00:45:27;;;;;;;;;;;;;;;;;;5071669;28;19910;-41
2022/11/05 00:50:37;;;;;;;;;;;;;;;;;;5073246;28;19923;-41
2022/11/05 00:53:03;;;;;;;;;;;;;;;;;;5071541;28;19905;-40
2022/11/05 00:55:29;;;;;;;;;;;;;;;;;;5085519;28;19912;-41
2022/11/05 06:04:28;;;;;;;;;;;;;;;;;;5091542;28;19923;-40
2022/11/05 06:06:54;;;;;;;;;;;;;;;;;;5085545;28;19916;-41
2022/11/05 06:09:22;;;;;;;;;;;;;;;;;;5090428;28;19961;-41
2022/11/05 06:11:48;;;;;;;;;;;;;;;;;;5090103;28;19911;-40
2022/11/05 06:14:13;;;;;;;;;;;;;;;;;;5092109;28;20325;-41
2022/11/05 06:16:39;;;;;;;;;;;;;;;;;;5086629;28;19908;-41
2022/11/05 06:19:05;;;;;;;;;;;;;;;;;;5086713;28;19907;-41
2022/11/05 06:21:31;;;;;;;;;;;;;;;;;;5084524;28;19912;-40
2022/11/05 06:23:57;;;;;;;;;;;;;;;;;;5082308;28;19912;-41
2022/11/05 06:26:24;;;;;;;;;;;;;;;;;;5069028;28;19905;-41
2022/11/05 06:28:50;;;;;;;;;;;;;;;;;;5072924;28;19983;-41
2022/11/05 06:31:16;;;;;;;;;;;;;;;;;;5082575;28;20019;-40
2022/11/05 06:33:42;;;;;;;;;;;;;;;;;;5073873;28;19919;-41
2022/11/05 06:36:09;;;;;;;;;;;;;;;;;;5069838;28;19924;-41
2022/11/05 06:38:35;;;;;;;;;;;;;;;;;;5068852;28;19943;-40
2022/11/05 06:41:01;;;;;;;;;;;;;;;;;;5069410;28;19912;-41
2022/11/05 06:43:27;;;;;;;;;;;;;;;;;;5073568;28;19915;-41
2022/11/05 06:45:52;;;;;;;;;;;;;;;;;;5086045;28;19908;-41
2022/11/05 06:48:19;;;;;;;;;;;;;;;;;;5090133;28;20338;-41
2022/11/05 06:50:45;;;;;;;;;;;;;;;;;;5087896;28;19947;-40
2022/11/05 06:53:11;;;;;;;;;;;;;;;;;;5093800;28;19943;-41
2022/11/05 06:55:37;;;;;;;;;;;;;;;;;;5088696;28;20164;-41
2022/11/05 06:58:03;;;;;;;;;;;;;;;;;;5091884;28;19904;-41
2022/11/05 07:00:29;;;;;;;;;;;;;;;;;;5088070;28;19911;-41
2022/11/05 07:02:55;;;;;;;;;;;;;;;;;;5089675;28;19916;-41
2022/11/05 07:05:21;;;;;;;;;;;;;;;;;;5090075;28;20298;-41
2022/11/05 07:07:47;;;;;;;;;;;;;;;;;;5081301;28;19950;-41
2022/11/05 07:10:13;;;;;;;;;;;;;;;;;;5083521;28;19959;-41
2022/11/05 07:12:39;;;;;;;;;;;;;;;;;;5085689;28;19908;-41
2022/11/05 07:15:05;;;;;;;;;;;;;;;;;;5078291;28;20027;-41
2022/11/05 07:17:31;;;;;;;;;;;;;;;;;;5082342;28;19914;-41
2022/11/05 07:19:57;;;;;;;;;;;;;;;;;;5068357;28;19908;-41
2022/11/05 07:22:23;;;;;;;;;;;;;;;;;;5067789;28;19908;-41
2022/11/05 07:24:49;;;;;;;;;;;;;;;;;;5066843;28;19915;-41
2022/11/05 07:27:15;;;;;;;;;;;;;;;;;;5067294;28;19939;-41
2022/11/05 07:29:40;;;;;;;;;;;;;;;;;;5067228;28;20372;-40
2022/11/05 07:32:06;;;;;;;;;;;;;;;;;;5070701;28;19917;-41
2022/11/05 07:34:32;;;;;;;;;;;;;;;;;;5070664;28;19955;-41
2022/11/05 07:36:59;;;;;;;;;;;;;;;;;;5074051;28;20402;-41
2022/11/05 07:39:26;;;;;;;;;;;;;;;;;;5070640;28;19911;-41
2022/11/05 07:41:53;;;;;;;;;;;;;;;;;;5070524;28;19905;-41
2022/11/05 07:44:19;;;;;;;;;;;;;;;;;;5055881;28;19904;-41
2022/11/05 07:46:45;;;;;;;;;;;;;;;;;;5071271;28;19905;-41
2022/11/05 07:49:11;;;;;;;;;;;;;;;;;;5070377;28;19912;-41
2022/11/05 07:51:38;;;;;;;;;;;;;;;;;;5053081;28;20448;-40
2022/11/05 07:54:04;;;;;;;;;;;;;;;;;;5070136;28;20299;-40
2022/11/05 07:56:30;;;;;;;;;;;;;;;;;;5070463;28;19904;-41
2022/11/05 07:58:55;;;;;;;;;;;;;;;;;;5070440;28;19905;-41
2022/11/05 08:01:21;;;;;;;;;;;;;;;;;;5070326;28;19916;-40
2022/11/05 08:03:48;;;;;;;;;;;;;;;;;;5070425;28;20405;-41
2022/11/05 08:06:14;;;;;;;;;;;;;;;;;;5076325;28;20428;-40
2022/11/05 08:08:40;;;;;;;;;;;;;;;;;;5071468;28;19913;-40
2022/11/05 08:11:06;;;;;;;;;;;;;;;;;;5070118;28;19993;-41
2022/11/05 08:13:32;;;;;;;;;;;;;;;;;;5070077;28;19904;-40
2022/11/05 08:15:58;;;;;;;;;;;;;;;;;;5070150;28;19915;-41
2022/11/05 08:18:30;;;;;;;;;;;;;;;;;;5069947;28;19942;-41
2022/11/05 08:20:56;;;;;;;;;;;;;;;;;;5069838;28;19912;-40
2022/11/05 08:23:21;;;;;;;;;;;;;;;;;;5077463;28;19915;-40
2022/11/05 08:25:47;;;;;;;;;;;;;;;;;;5071365;28;19908;-41
2022/11/05 08:28:13;;;;;;;;;;;;;;;;;;5081241;28;19912;-41
2022/11/05 08:30:39;;;;;;;;;;;;;;;;;;5075987;28;19950;-40
2022/11/05 08:33:05;;;;;;;;;;;;;;;;;;5072970;28;19912;-40
2022/11/05 08:35:31;;;;;;;;;;;;;;;;;;5088156;28;19915;-40
2022/11/05 08:37:59;;;;;;;;;;;;;;;;;;5071659;28;19908;-40
2022/11/05 08:40:25;;;;;;;;;;;;;;;;;;5072304;28;19912;-40
2022/11/05 08:42:51;;;;;;;;;;;;;;;;;;5101729;28;19915;-41
2022/11/05 08:45:18;;;;;;;;;;;;;;;;;;5111461;28;19911;-40
2022/11/05 08:47:44;;;;;;;;;;;;;;;;;;5111509;28;19908;-40
2022/11/05 08:50:09;;;;;;;;;;;;;;;;;;5088637;28;19908;-40
2022/11/05 08:52:35;;;;;;;;;;;;;;;;;;5089855;28;20290;-40
2022/11/05 08:55:01;;;;;;;;;;;;;;;;;;5091539;28;19939;-40
2022/11/05 08:57:27;;;;;;;;;;;;;;;;;;5111078;28;19990;-41
2022/11/05 08:59:53;;;;;;;;;;;;;;;;;;5093608;28;20769;-40
2022/11/05 09:02:19;;;;;;;;;;;;;;;;;;5075478;28;19948;-40
2022/11/05 09:04:45;;;;;;;;;;;;;;;;;;5075796;28;20026;-40
2022/11/05 09:07:11;;;;;;;;;;;;;;;;;;5082216;28;19908;-40
2022/11/05 09:09:37;;;;;;;;;;;;;;;;;;5075406;28;19908;-40
2022/11/05 09:12:03;;;;;;;;;;;;;;;;;;5096137;28;19908;-41
2022/11/05 09:14:30;;;;;;;;;;;;;;;;;;5076317;28;20379;-40
2022/11/05 09:16:56;;;;;;;;;;;;;;;;;;5085503;28;19931;-40
2022/11/05 09:19:22;;;;;;;;;;;;;;;;;;5078438;28;19909;-40
2022/11/05 09:21:48;;;;;;;;;;;;;;;;;;5093468;28;19915;-41
2022/11/05 09:24:14;;;;;;;;;;;;;;;;;;5090918;28;19908;-40
2022/11/05 09:26:41;;;;;;;;;;;;;;;;;;5106232;28;19910;-40
2022/11/05 09:29:07;;;;;;;;;;;;;;;;;;5075892;28;19908;-40
2022/11/05 09:31:32;;;;;;;;;;;;;;;;;;5089088;28;19927;-40
2022/11/05 09:33:58;;;;;;;;;;;;;;;;;;5084477;28;19914;-40
2022/11/05 09:36:24;;;;;;;;;;;;;;;;;;5070063;28;19912;-40
2022/11/05 09:38:50;;;;;;;;;;;;;;;;;;5069881;28;19908;-40
2022/11/05 09:41:16;;;;;;;;;;;;;;;;;;5068981;28;19963;-41
2022/11/05 09:43:42;;;;;;;;;;;;;;;;;;5069478;28;20007;-41
2022/11/05 09:46:08;;;;;;;;;;;;;;;;;;5080727;28;20770;-40
2022/11/05 09:48:35;;;;;;;;;;;;;;;;;;5089678;28;19908;-41
2022/11/05 09:51:01;;;;;;;;;;;;;;;;;;5088694;28;20166;-40
2022/11/05 09:53:27;;;;;;;;;;;;;;;;;;5087227;28;19943;-40
2022/11/05 09:55:53;;;;;;;;;;;;;;;;;;5088450;28;19915;-40
2022/11/05 09:58:20;;;;;;;;;;;;;;;;;;5088263;28;19915;-40
2022/11/05 10:00:49;;;;;;;;;;;;;;;;;;5088229;28;19962;-40
2022/11/05 10:03:15;;;;;;;;;;;;;;;;;;5088150;28;19920;-41
2022/11/05 10:05:42;;;;;;;;;;;;;;;;;;5087994;28;19915;-40
2022/11/05 10:08:08;;;;;;;;;;;;;;;;;;5087693;28;19912;-40
2022/11/05 10:10:35;;;;;;;;;;;;;;;;;;5088004;28;19931;-40
2022/11/05 10:13:02;;;;;;;;;;;;;;;;;;5087812;28;19927;-40
2022/11/05 10:15:28;;;;;;;;;;;;;;;;;;5087388;28;19912;-40
2022/11/05 10:17:55;;;;;;;;;;;;;;;;;;5087654;28;19970;-41
2022/11/05 10:20:22;;;;;;;;;;;;;;;;;;5087844;28;20351;-40
2022/11/05 10:22:48;;;;;;;;;;;;;;;;;;5087588;28;19909;-41
2022/11/05 10:25:14;;;;;;;;;;;;;;;;;;5087597;28;19908;-40
2022/11/05 10:27:39;;;;;;;;;;;;;;;;;;5087454;28;20414;-40
2022/11/05 10:30:05;;;;;;;;;;;;;;;;;;5087543;28;19912;-40
2022/11/05 10:32:32;;;;;;;;;;;;;;;;;;5082199;28;19935;-40
2022/11/05 10:34:59;;;;;;;;;;;;;;;;;;5072469;28;19985;-40
2022/11/05 10:37:25;;;;;;;;;;;;;;;;;;5085702;28;20007;-40
2022/11/05 10:39:51;;;;;;;;;;;;;;;;;;5087532;28;19915;-40
2022/11/05 10:42:17;;;;;;;;;;;;;;;;;;5087619;28;19907;-40
2022/11/05 10:44:46;;;;;;;;;;;;;;;;;;5087738;28;20223;-40
2022/11/05 10:47:12;;;;;;;;;;;;;;;;;;5087398;28;19939;-40
2022/11/05 10:49:38;;;;;;;;;;;;;;;;;;5087420;28;20576;-40
2022/11/05 10:52:04;;;;;;;;;;;;;;;;;;5087509;28;19908;-41
2022/11/05 10:54:30;;;;;;;;;;;;;;;;;;5087612;28;20401;-40
2022/11/05 10:56:56;;;;;;;;;;;;;;;;;;5087295;28;19904;-40
2022/11/05 10:59:23;;;;;;;;;;;;;;;;;;5087153;28;19911;-40
2022/11/05 11:01:49;;;;;;;;;;;;;;;;;;5087266;28;19904;-40
2022/11/05 11:04:15;;;;;;;;;;;;;;;;;;5088333;28;20437;-40
2022/11/05 11:06:41;;;;;;;;;;;;;;;;;;5091166;28;20030;-40
2022/11/05 11:09:07;;;;;;;;;;;;;;;;;;5091375;28;19904;-40
2022/11/05 11:11:33;;;;;;;;;;;;;;;;;;5091224;28;20001;-40
2022/11/05 11:13:59;;;;;;;;;;;;;;;;;;5080605;28;19913;-40
2022/11/05 11:16:25;;;;;;;;;;;;;;;;;;5086656;28;19915;-40
2022/11/05 11:18:51;;;;;;;;;;;;;;;;;;5088676;28;19912;-40
2022/11/05 11:21:27;;;;;;;;;;;;;;;;;;5084816;28;20272;-40
2022/11/05 11:23:53;;;;;;;;;;;;;;;;;;5072540;28;19915;-40
2022/11/05 11:26:20;;;;;;;;;;;;;;;;;;5070632;28;20309;-40
2022/11/05 11:28:46;;;;;;;;;;;;;;;;;;5070918;28;19904;-40
2022/11/05 11:31:12;;;;;;;;;;;;;;;;;;5078840;28;19908;-41
2022/11/05 11:33:38;;;;;;;;;;;;;;;;;;5083178;28;19918;-40
2022/11/05 11:36:04;;;;;;;;;;;;;;;;;;5106875;28;20741;-40
2022/11/05 11:38:30;;;;;;;;;;;;;;;;;;5111473;28;19908;-40
2022/11/05 11:40:56;;;;;;;;;;;;;;;;;;5091842;28;19912;-40
2022/11/05 11:43:22;;;;;;;;;;;;;;;;;;5092194;28;19911;-40
2022/11/05 11:45:48;;;;;;;;;;;;;;;;;;5098660;28;19935;-40
2022/11/05 11:48:14;;;;;;;;;;;;;;;;;;5097018;28;19908;-40
2022/11/05 11:50:40;;;;;;;;;;;;;;;;;;5091643;28;19908;-40
2022/11/05 11:53:06;;;;;;;;;;;;;;;;;;5091862;28;19970;-40
2022/11/05 11:55:32;;;;;;;;;;;;;;;;;;5091757;28;20394;-41
2022/11/05 11:57:58;;;;;;;;;;;;;;;;;;5092011;28;19904;-40
2022/11/05 12:00:25;;;;;;;;;;;;;;;;;;5084288;28;19981;-40
2022/11/05 12:02:51;;;;;;;;;;;;;;;;;;5077814;28;20003;-40
2022/11/05 12:05:17;;;;;;;;;;;;;;;;;;5078231;28;20107;-40
2022/11/05 12:07:43;;;;;;;;;;;;;;;;;;5073315;28;20648;-40
2022/11/05 12:10:09;;;;;;;;;;;;;;;;;;5089945;28;19927;-40
2022/11/05 12:12:35;;;;;;;;;;;;;;;;;;5070891;28;19912;-40
2022/11/05 12:15:01;;;;;;;;;;;;;;;;;;5068233;28;20291;-40
2022/11/05 12:17:27;;;;;;;;;;;;;;;;;;5070227;28;19913;-40
2022/11/05 12:19:52;;;;;;;;;;;;;;;;;;5070129;28;19909;-40
2022/11/05 12:22:18;;;;;;;;;;;;;;;;;;5069466;28;19904;-40
2022/11/05 12:24:44;;;;;;;;;;;;;;;;;;5069685;28;19985;-40
2022/11/05 12:27:10;;;;;;;;;;;;;;;;;;5074073;28;19908;-40
2022/11/05 12:29:36;;;;;;;;;;;;;;;;;;5091498;28;19908;-40
2022/11/05 12:32:02;;;;;;;;;;;;;;;;;;5110034;28;20425;-40
2022/11/05 12:34:28;;;;;;;;;;;;;;;;;;5092025;28;19903;-40
2022/11/05 12:36:54;;;;;;;;;;;;;;;;;;5089885;28;19904;-40
2022/11/05 12:39:20;;;;;;;;;;;;;;;;;;5089434;28;19904;-40
2022/11/05 12:41:46;;;;;;;;;;;;;;;;;;5089576;28;20026;-40
2022/11/05 12:44:12;;;;;;;;;;;;;;;;;;5089611;28;20005;-41
2022/11/05 12:46:38;;;;;;;;;;;;;;;;;;5101547;28;19907;-40
2022/11/05 12:49:04;;;;;;;;;;;;;;;;;;5074795;28;19908;-38
2022/11/05 12:51:30;;;;;;;;;;;;;;;;;;5080116;28;19955;-38
2022/11/05 12:53:56;;;;;;;;;;;;;;;;;;5083311;28;19911;-38
2022/11/05 12:56:22;;;;;;;;;;;;;;;;;;5110107;28;19919;-38
2022/11/05 12:58:48;;;;;;;;;;;;;;;;;;5096675;28;20420;-38
2022/11/05 13:01:14;;;;;;;;;;;;;;;;;;5089216;28;20002;-38
2022/11/05 13:03:40;;;;;;;;;;;;;;;;;;5089164;28;19912;-38
2022/11/05 13:06:06;;;;;;;;;;;;;;;;;;5061655;28;19912;-38
2022/11/05 13:08:31;;;;;;;;;;;;;;;;;;5048211;28;20000;-38
2022/11/05 13:10:57;;;;;;;;;;;;;;;;;;5048772;28;19909;-38
2022/11/05 13:13:23;;;;;;;;;;;;;;;;;;5049412;28;19924;-38
2022/11/05 13:15:49;;;;;;;;;;;;;;;;;;5048796;28;19909;-38
2022/11/05 13:18:15;;;;;;;;;;;;;;;;;;5048628;28;19900;-38
2022/11/05 13:20:41;;;;;;;;;;;;;;;;;;5048263;28;19916;-38
2022/11/05 13:23:07;;;;;;;;;;;;;;;;;;5048341;28;19909;-38
2022/11/05 13:25:33;;;;;;;;;;;;;;;;;;5054072;28;19915;-38
2022/11/05 13:27:59;;;;;;;;;;;;;;;;;;5054533;28;19998;-38
2022/11/05 13:30:25;;;;;;;;;;;;;;;;;;5049112;28;19911;-38
2022/11/05 13:32:51;;;;;;;;;;;;;;;;;;5048978;28;20304;-38
2022/11/05 13:35:17;;;;;;;;;;;;;;;;;;5047969;28;19956;-38
2022/11/05 13:40:27;;;;;;;;;;;;;;;;;;5048302;28;20054;-38
2022/11/05 13:42:53;;;;;;;;;;;;;;;;;;5049007;28;19908;-38
2022/11/05 13:45:19;;;;;;;;;;;;;;;;;;5048027;28;19912;-38
2022/11/05 13:47:45;;;;;;;;;;;;;;;;;;5048057;28;19905;-38
2022/11/05 13:50:11;;;;;;;;;;;;;;;;;;5047983;28;19955;-38
2022/11/05 13:52:37;;;;;;;;;;;;;;;;;;5047759;28;19975;-38
2022/11/05 13:55:03;;;;;;;;;;;;;;;;;;5047961;28;19904;-37
2022/11/05 13:57:29;;;;;;;;;;;;;;;;;;5049924;28;19923;-38
2022/11/05 13:59:55;;;;;;;;;;;;;;;;;;5068062;28;19912;-38
2022/11/05 14:02:21;;;;;;;;;;;;;;;;;;5065256;28;19940;-38
2022/11/05 14:04:47;;;;;;;;;;;;;;;;;;5065349;28;19916;-38
2022/11/05 14:07:12;;;;;;;;;;;;;;;;;;5067692;28;19926;-38
2022/11/05 14:09:38;;;;;;;;;;;;;;;;;;5067861;28;19904;-38
2022/11/05 14:12:04;;;;;;;;;;;;;;;;;;5068408;28;19904;-37
2022/11/05 14:14:30;;;;;;;;;;;;;;;;;;5067633;28;19904;-38
2022/11/05 14:16:56;;;;;;;;;;;;;;;;;;5067779;28;19908;-38
2022/11/05 14:19:22;;;;;;;;;;;;;;;;;;5067381;28;20012;-38
2022/11/05 14:21:48;;;;;;;;;;;;;;;;;;5067539;28;19920;-38
2022/11/05 14:24:14;;;;;;;;;;;;;;;;;;5067389;28;19990;-38
2022/11/05 14:26:40;;;;;;;;;;;;;;;;;;5067417;28;20003;-38
2022/11/05 14:29:06;;;;;;;;;;;;;;;;;;5068262;28;19908;-38
2022/11/05 14:31:32;;;;;;;;;;;;;;;;;;5067708;28;19979;-38
2022/11/05 14:33:59;;;;;;;;;;;;;;;;;;5067120;28;20008;-38
2022/11/05 14:36:24;;;;;;;;;;;;;;;;;;5067378;28;19908;-38
2022/11/05 14:38:50;;;;;;;;;;;;;;;;;;5066873;28;19949;-38
2022/11/05 14:41:16;;;;;;;;;;;;;;;;;;5067176;28;19920;-38
2022/11/05 14:43:42;;;;;;;;;;;;;;;;;;5067439;28;19958;-38
2022/11/05 14:46:09;;;;;;;;;;;;;;;;;;5067117;28;19904;-37
2022/11/05 14:48:36;;;;;;;;;;;;;;;;;;5067274;28;20495;-38
2022/11/05 14:51:02;;;;;;;;;;;;;;;;;;5049191;28;20589;-38
2022/11/05 14:53:28;;;;;;;;;;;;;;;;;;5067200;28;20015;-38
2022/11/05 14:55:54;;;;;;;;;;;;;;;;;;5067151;28;19904;-38
2022/11/05 14:58:20;;;;;;;;;;;;;;;;;;5067224;28;19905;-38
2022/11/05 15:00:47;;;;;;;;;;;;;;;;;;5067259;28;19908;-38
2022/11/05 15:03:12;;;;;;;;;;;;;;;;;;5066842;28;20011;-38
2022/11/05 15:05:38;;;;;;;;;;;;;;;;;;5067161;28;20000;-38
2022/11/05 15:08:04;;;;;;;;;;;;;;;;;;5067719;28;19928;-38
2022/11/05 15:10:30;;;;;;;;;;;;;;;;;;5067265;28;20383;-38
2022/11/05 15:12:56;;;;;;;;;;;;;;;;;;5067022;28;19993;-38
2022/11/05 15:15:22;;;;;;;;;;;;;;;;;;5066970;28;19909;-38
2022/11/05 15:17:50;;;;;;;;;;;;;;;;;;5066840;28;19909;-38
2022/11/05 15:20:17;;;;;;;;;;;;;;;;;;5066869;28;20334;-37
2022/11/05 15:22:43;;;;;;;;;;;;;;;;;;5048989;28;19911;-38
2022/11/05 15:25:09;;;;;;;;;;;;;;;;;;5066897;28;20371;-38
2022/11/05 15:27:35;;;;;;;;;;;;;;;;;;5067482;28;19905;-38
2022/11/05 15:30:01;;;;;;;;;;;;;;;;;;5082669;28;19986;-37
2022/11/05 15:32:27;;;;;;;;;;;;;;;;;;5084418;28;20077;-38
2022/11/05 15:34:53;;;;;;;;;;;;;;;;;;5066634;28;19910;-38
2022/11/05 15:37:20;;;;;;;;;;;;;;;;;;5066413;28;19904;-38
2022/11/05 15:39:46;;;;;;;;;;;;;;;;;;5066129;28;19908;-38
2022/11/05 15:42:12;;;;;;;;;;;;;;;;;;5066489;28;19912;-37
2022/11/05 15:44:38;;;;;;;;;;;;;;;;;;5076888;28;19912;-38
2022/11/05 15:47:04;;;;;;;;;;;;;;;;;;5081141;28;19904;-38
2022/11/05 15:49:30;;;;;;;;;;;;;;;;;;5080364;28;20383;-38
2022/11/05 15:51:56;;;;;;;;;;;;;;;;;;5087054;28;19904;-37
2022/11/05 15:54:21;;;;;;;;;;;;;;;;;;5089055;28;19919;-38
2022/11/05 15:56:48;;;;;;;;;;;;;;;;;;5071640;28;19913;-38
2022/11/05 15:59:13;;;;;;;;;;;;;;;;;;5079606;28;19912;-38
2022/11/05 16:01:39;;;;;;;;;;;;;;;;;;5083999;28;19931;-37
2022/11/05 16:04:05;;;;;;;;;;;;;;;;;;5084005;28;19913;-38
2022/11/05 16:06:31;;;;;;;;;;;;;;;;;;5068761;28;19912;-38
2022/11/05 16:08:57;;;;;;;;;;;;;;;;;;5075303;28;19965;-38
2022/11/05 16:11:23;;;;;;;;;;;;;;;;;;5088263;28;19908;-37
2022/11/05 16:13:50;;;;;;;;;;;;;;;;;;5090708;28;19991;-38
2022/11/05 16:16:16;;;;;;;;;;;;;;;;;;5089709;28;19949;-38
2022/11/05 16:18:42;;;;;;;;;;;;;;;;;;5089746;28;19951;-37
2022/11/05 16:21:08;;;;;;;;;;;;;;;;;;5075913;28;20031;-37
2022/11/05 16:23:34;;;;;;;;;;;;;;;;;;5086205;28;19946;-38
2022/11/05 16:26:00;;;;;;;;;;;;;;;;;;5088847;28;19908;-40
2022/11/05 16:28:26;;;;;;;;;;;;;;;;;;5089732;28;19904;-40
2022/11/05 16:30:52;;;;;;;;;;;;;;;;;;5089142;28;19982;-40
2022/11/05 16:33:18;;;;;;;;;;;;;;;;;;5090145;28;19912;-40
2022/11/05 16:35:44;;;;;;;;;;;;;;;;;;5089906;28;20402;-40
2022/11/05 16:38:09;;;;;;;;;;;;;;;;;;5088907;28;19947;-40
2022/11/05 16:40:35;;;;;;;;;;;;;;;;;;5080696;28;19916;-40
2022/11/05 16:43:01;;;;;;;;;;;;;;;;;;5068780;28;19927;-40
2022/11/05 16:45:27;;;;;;;;;;;;;;;;;;5068944;28;19908;-40
2022/11/05 16:47:53;;;;;;;;;;;;;;;;;;5069374;28;19905;-40
2022/11/05 16:50:19;;;;;;;;;;;;;;;;;;5071418;28;19908;-40
2022/11/05 16:52:45;;;;;;;;;;;;;;;;;;5089878;28;19995;-40
2022/11/05 16:55:11;;;;;;;;;;;;;;;;;;5072173;28;19908;-40
2022/11/05 16:57:38;;;;;;;;;;;;;;;;;;5069359;28;19991;-40
2022/11/05 17:00:04;;;;;;;;;;;;;;;;;;5068803;28;20349;-40
2022/11/05 17:02:30;;;;;;;;;;;;;;;;;;5068158;28;19912;-40
2022/11/05 17:04:56;;;;;;;;;;;;;;;;;;5069118;28;19912;-40
2022/11/05 17:07:22;;;;;;;;;;;;;;;;;;5071333;28;19905;-40
2022/11/05 17:09:48;;;;;;;;;;;;;;;;;;5088011;28;19974;-40
2022/11/05 17:12:14;;;;;;;;;;;;;;;;;;5080571;28;19908;-40
2022/11/05 17:14:40;;;;;;;;;;;;;;;;;;5072956;28;19951;-40
2022/11/05 17:17:06;;;;;;;;;;;;;;;;;;5088959;28;19972;-40
2022/11/05 17:19:32;;;;;;;;;;;;;;;;;;5088961;28;19908;-40
2022/11/05 17:21:58;;;;;;;;;;;;;;;;;;5088739;28;19927;-40
2022/11/05 17:24:24;;;;;;;;;;;;;;;;;;5087686;28;20386;-40
2022/11/05 17:26:49;;;;;;;;;;;;;;;;;;5070240;28;19956;-40
2022/11/05 17:29:15;;;;;;;;;;;;;;;;;;5073140;28;19914;-40
2022/11/05 17:31:41;;;;;;;;;;;;;;;;;;5080590;28;19908;-40
2022/11/05 17:34:07;;;;;;;;;;;;;;;;;;5068483;28;19912;-40
2022/11/05 17:36:33;;;;;;;;;;;;;;;;;;5067863;28;19916;-40
2022/11/05 17:38:59;;;;;;;;;;;;;;;;;;5079101;28;19908;-40
2022/11/05 17:41:25;;;;;;;;;;;;;;;;;;5082308;28;19955;-40
2022/11/05 17:43:51;;;;;;;;;;;;;;;;;;5068251;28;19939;-40
2022/11/05 17:46:18;;;;;;;;;;;;;;;;;;5068148;28;19901;-40
2022/11/05 17:48:44;;;;;;;;;;;;;;;;;;5049323;28;19908;-40
2022/11/05 17:51:10;;;;;;;;;;;;;;;;;;5068516;28;20371;-40
2022/11/05 17:53:36;;;;;;;;;;;;;;;;;;5087612;28;19904;-40
2022/11/05 17:56:02;;;;;;;;;;;;;;;;;;5087751;28;19911;-40
2022/11/05 17:58:28;;;;;;;;;;;;;;;;;;5085417;28;19948;-40
2022/11/05 18:00:54;;;;;;;;;;;;;;;;;;5085664;28;19912;-40
2022/11/05 18:03:20;;;;;;;;;;;;;;;;;;5088502;28;19978;-40
2022/11/05 18:05:46;;;;;;;;;;;;;;;;;;5087884;28;19908;-40
2022/11/05 18:08:12;;;;;;;;;;;;;;;;;;5086893;28;20562;-40
2022/11/05 18:10:38;;;;;;;;;;;;;;;;;;5087546;28;19912;-40
2022/11/05 18:13:04;;;;;;;;;;;;;;;;;;5087813;28;20539;-40
2022/11/05 18:15:30;;;;;;;;;;;;;;;;;;5086943;28;19926;-40
2022/11/05 18:17:56;;;;;;;;;;;;;;;;;;5087633;28;19904;-40
2022/11/05 18:20:22;;;;;;;;;;;;;;;;;;5087040;28;19912;-40
2022/11/05 18:22:47;;;;;;;;;;;;;;;;;;5087963;28;20082;-40
2022/11/05 18:25:13;;;;;;;;;;;;;;;;;;5086870;28;19931;-40
2022/11/05 18:27:39;;;;;;;;;;;;;;;;;;5087029;28;20434;-40
2022/11/05 18:30:05;;;;;;;;;;;;;;;;;;5081559;28;19930;-40
2022/11/05 18:32:31;;;;;;;;;;;;;;;;;;5073711;28;19908;-40
2022/11/05 18:34:57;;;;;;;;;;;;;;;;;;5068744;28;19912;-40
2022/11/05 18:37:23;;;;;;;;;;;;;;;;;;5069288;28;19935;-40
2022/11/05 18:39:50;;;;;;;;;;;;;;;;;;5074133;28;19912;-40
2022/11/05 18:42:16;;;;;;;;;;;;;;;;;;5087601;28;19982;-40
2022/11/05 18:44:41;;;;;;;;;;;;;;;;;;5072745;28;20663;-40
2022/11/05 18:47:07;;;;;;;;;;;;;;;;;;5067299;28;20027;-40
2022/11/05 18:49:35;;;;;;;;;;;;;;;;;;5068908;28;19916;-40
2022/11/05 18:52:01;;;;;;;;;;;;;;;;;;5067250;28;20616;-40
2022/11/05 18:54:26;;;;;;;;;;;;;;;;;;5067297;28;19978;-40
2022/11/05 18:56:52;;;;;;;;;;;;;;;;;;5050904;28;19908;-40
2022/11/05 18:59:18;;;;;;;;;;;;;;;;;;5108171;28;19969;-40
2022/11/05 19:01:44;;;;;;;;;;;;;;;;;;5085388;28;20006;-40
2022/11/05 19:04:10;;;;;;;;;;;;;;;;;;5086265;28;19927;-40
2022/11/05 19:06:36;;;;;;;;;;;;;;;;;;5087508;28;19927;-40
2022/11/05 19:09:02;;;;;;;;;;;;;;;;;;5074387;28;19962;-40
2022/11/05 19:11:28;;;;;;;;;;;;;;;;;;5066110;28;20416;-40
2022/11/05 19:13:54;;;;;;;;;;;;;;;;;;5066761;28;19908;-40
2022/11/05 19:16:20;;;;;;;;;;;;;;;;;;5067332;28;19995;-40
2022/11/05 19:18:46;;;;;;;;;;;;;;;;;;5067552;28;19965;-40
2022/11/05 19:21:12;;;;;;;;;;;;;;;;;;5076226;28;20002;-40
2022/11/05 19:23:38;;;;;;;;;;;;;;;;;;5087178;28;19912;-40
2022/11/05 19:26:04;;;;;;;;;;;;;;;;;;5088954;28;20050;-40
2022/11/05 19:28:30;;;;;;;;;;;;;;;;;;5091237;28;19991;-40
2022/11/05 19:30:56;;;;;;;;;;;;;;;;;;5090831;28;20314;-40
2022/11/05 19:33:22;;;;;;;;;;;;;;;;;;5083181;28;19908;-40
2022/11/05 19:35:48;;;;;;;;;;;;;;;;;;5071080;28;19908;-40
2022/11/05 19:38:14;;;;;;;;;;;;;;;;;;5070829;28;19961;-40
2022/11/05 19:40:40;;;;;;;;;;;;;;;;;;5071699;28;19913;-41
2022/11/05 19:43:05;;;;;;;;;;;;;;;;;;5080925;28;19912;-40
2022/11/05 19:45:32;;;;;;;;;;;;;;;;;;5096853;28;20202;-40
2022/11/05 19:47:59;;;;;;;;;;;;;;;;;;5095688;28;19908;-40
2022/11/05 19:50:25;;;;;;;;;;;;;;;;;;5053120;28;19912;-40
2022/11/05 19:52:52;;;;;;;;;;;;;;;;;;5050479;28;19947;-40
2022/11/05 19:55:18;;;;;;;;;;;;;;;;;;5050142;28;19912;-40
2022/11/05 19:57:44;;;;;;;;;;;;;;;;;;5070726;28;20375;-40
2022/11/05 20:00:10;;;;;;;;;;;;;;;;;;5083499;28;19908;-40
2022/11/05 20:02:36;;;;;;;;;;;;;;;;;;5087158;28;19910;-41
2022/11/05 20:05:02;;;;;;;;;;;;;;;;;;5072003;28;20011;-40
2022/11/05 20:07:27;;;;;;;;;;;;;;;;;;5067535;28;19904;-40
2022/11/05 20:09:53;;;;;;;;;;;;;;;;;;5064506;28;19912;-40
2022/11/05 20:12:19;;;;;;;;;;;;;;;;;;5067819;28;19908;-40
2022/11/05 20:14:45;;;;;;;;;;;;;;;;;;5067243;28;19943;-40
2022/11/05 20:17:11;;;;;;;;;;;;;;;;;;5067052;28;19908;-40
2022/11/05 20:19:37;;;;;;;;;;;;;;;;;;5049227;28;19954;-40
2022/11/05 20:22:04;;;;;;;;;;;;;;;;;;5067134;28;19912;-40
2022/11/05 20:24:30;;;;;;;;;;;;;;;;;;5066415;28;19919;-40
2022/11/05 20:26:56;;;;;;;;;;;;;;;;;;5066916;28;20310;-40
2022/11/05 20:29:21;;;;;;;;;;;;;;;;;;5034378;28;20376;-39
2022/11/05 20:31:47;;;;;;;;;;;;;;;;;;5029512;28;20460;-40
2022/11/05 20:34:13;;;;;;;;;;;;;;;;;;5046872;28;19905;-40
2022/11/05 20:36:40;;;;;;;;;;;;;;;;;;5046109;28;20018;-40
2022/11/05 20:39:06;;;;;;;;;;;;;;;;;;5046970;28;19920;-40
2022/11/05 20:41:32;;;;;;;;;;;;;;;;;;5057103;28;19916;-40
2022/11/05 20:43:58;;;;;;;;;;;;;;;;;;5056419;28;19915;-40
2022/11/05 20:46:25;;;;;;;;;;;;;;;;;;5053114;28;20071;-40
2022/11/05 20:48:52;;;;;;;;;;;;;;;;;;5061429;28;19951;-40
2022/11/05 20:51:18;;;;;;;;;;;;;;;;;;5048234;28;19912;-40
2022/11/05 20:53:45;;;;;;;;;;;;;;;;;;5046466;28;19974;-40
2022/11/05 20:56:11;;;;;;;;;;;;;;;;;;5046715;28;19984;-39
2022/11/05 20:58:36;;;;;;;;;;;;;;;;;;5046759;28;19991;-40
2022/11/05 21:01:02;;;;;;;;;;;;;;;;;;5056865;28;19915;-40
2022/11/05 21:03:28;;;;;;;;;;;;;;;;;;5073920;28;20456;-40
2022/11/05 21:05:58;;;;;;;;;;;;;;;;;;5104139;28;19946;-40
2022/11/05 21:08:24;;;;;;;;;;;;;;;;;;5107092;28;19958;-40
2022/11/05 21:10:50;;;;;;;;;;;;;;;;;;5107114;28;19908;-40
2022/11/05 21:13:16;;;;;;;;;;;;;;;;;;5086872;28;19959;-40
2022/11/05 21:15:42;;;;;;;;;;;;;;;;;;5106105;28;19908;-40
2022/11/05 21:18:08;;;;;;;;;;;;;;;;;;5086101;28;19958;-40
2022/11/05 21:20:34;;;;;;;;;;;;;;;;;;5047941;28;19908;-40
2022/11/05 21:23:00;;;;;;;;;;;;;;;;;;5066010;28;19927;-40
2022/11/05 21:25:25;;;;;;;;;;;;;;;;;;5066069;28;19908;-40
2022/11/05 21:27:51;;;;;;;;;;;;;;;;;;5066871;28;19911;-40
2022/11/05 21:30:17;;;;;;;;;;;;;;;;;;5066382;28;19943;-40
2022/11/05 21:32:43;;;;;;;;;;;;;;;;;;5078040;28;19957;-40
2022/11/05 21:35:09;;;;;;;;;;;;;;;;;;5084744;28;19916;-40
2022/11/05 21:37:35;;;;;;;;;;;;;;;;;;5081601;28;19904;-40
2022/11/05 21:40:01;;;;;;;;;;;;;;;;;;5097231;28;19911;-40
2022/11/05 21:42:27;;;;;;;;;;;;;;;;;;5085943;28;19904;-40
2022/11/05 21:44:52;;;;;;;;;;;;;;;;;;5085200;28;19915;-40
2022/11/05 21:47:18;;;;;;;;;;;;;;;;;;5086441;28;20371;-40
2022/11/05 21:49:44;;;;;;;;;;;;;;;;;;5084675;28;20563;-40
2022/11/05 22:00:24;;;;;;;;;;;;;;;;;;5081410;28;20038;-40
2022/11/05 22:02:50;;;;;;;;;;;;;;;;;;5067596;28;19943;-40
2022/11/05 22:05:17;;;;;;;;;;;;;;;;;;5067640;28;19947;-40
2022/11/05 22:07:43;;;;;;;;;;;;;;;;;;5068676;28;20298;-40
2022/11/05 22:10:09;;;;;;;;;;;;;;;;;;5074914;28;19912;-40
2022/11/05 22:12:35;;;;;;;;;;;;;;;;;;5079241;28;19915;-40
2022/11/05 22:15:01;;;;;;;;;;;;;;;;;;5072495;28;20371;-40
2022/11/05 22:17:27;;;;;;;;;;;;;;;;;;5076630;28;19970;-40